Time,TemperatureF,DewpointF,PressureIn,WindDirection,WindDirectionDegrees,WindSpeedMPH,WindSpeedGustMPH,Humidity,HourlyPrecipIn,Conditions,Clouds,dailyrainin,SoftwareType,DateUTC
2013-01-01 00:00:00,63.2,56.9,30.17,North,0,0.0,0.0,80,0.00,,,0.00,WUHU216HW,2013-01-01 05:00:00,
2013-01-01 00:01:00,63.2,56.9,30.17,North,0,0.0,0.0,80,0.00,,,0.00,WUHU216HW,2013-01-01 05:01:00,
2013-01-01 00:06:00,63.2,56.9,30.17,North,0,0.0,0.0,80,0.00,,,0.00,WUHU216HW,2013-01-01 05:06:00,
2013-01-01 00:30:00,63.4,57.1,30.16,North,0,0.2,0.2,80,0.00,,,0.00,WUHU216HW,2013-01-01 05:30:00,
2013-01-01 00:35:00,63.4,57.1,30.16,North,0,0.2,0.2,80,0.00,,,0.00,WUHU216HW,2013-01-01 05:35:00,
2013-01-01 00:59:00,63.5,57.2,30.16,NNW,338,0.9,0.9,80,0.00,,,0.00,WUHU216HW,2013-01-01 05:59:00,
2013-01-01 01:04:00,63.5,57.2,30.16,NNW,338,0.9,0.9,80,0.00,,,0.00,WUHU216HW,2013-01-01 06:04:00,
2013-01-01 01:29:00,63.7,57.1,30.15,ENE,68,0.0,0.0,79,0.00,,,0.00,WUHU216HW,2013-01-01 06:29:00,
2013-01-01 01:34:00,63.7,57.1,30.15,ENE,68,0.0,0.0,79,0.00,,,0.00,WUHU216HW,2013-01-01 06:34:00,
2013-01-01 01:59:00,63.7,57.1,30.15,NE,45,0.0,0.0,79,0.00,,,0.00,WUHU216HW,2013-01-01 06:59:00,
2013-01-01 02:04:00,63.7,57.1,30.15,NE,45,0.0,0.0,79,0.00,,,0.00,WUHU216HW,2013-01-01 07:04:00,
2013-01-01 02:29:00,63.7,57.1,30.14,East,90,1.6,1.6,79,0.00,,,0.00,WUHU216HW,2013-01-01 07:29:00,
2013-01-01 02:34:00,63.7,57.1,30.14,East,90,1.6,1.6,79,0.00,,,0.00,WUHU216HW,2013-01-01 07:34:00,
2013-01-01 02:59:00,63.5,56.9,30.14,NNE,23,2.0,2.0,79,0.00,,,0.00,WUHU216HW,2013-01-01 07:59:00,
2013-01-01 03:04:00,63.5,56.9,30.14,NNE,23,2.0,2.0,79,0.00,,,0.00,WUHU216HW,2013-01-01 08:04:00,
2013-01-01 03:29:00,63.7,57.4,30.14,NNE,23,1.1,1.1,80,0.00,,,0.00,WUHU216HW,2013-01-01 08:29:00,
2013-01-01 03:34:00,63.7,57.4,30.14,NNE,23,1.1,1.1,80,0.00,,,0.00,WUHU216HW,2013-01-01 08:34:00,
2013-01-01 03:59:00,63.5,57.2,30.13,NNW,338,0.7,0.7,80,0.00,,,0.00,WUHU216HW,2013-01-01 08:59:00,
2013-01-01 04:04:00,63.5,57.2,30.13,NNW,338,0.7,0.7,80,0.00,,,0.00,WUHU216HW,2013-01-01 09:04:00,
2013-01-01 04:29:00,63.7,57.4,30.12,East,90,0.0,0.0,80,0.00,,,0.00,WUHU216HW,2013-01-01 09:29:00,
2013-01-01 04:35:00,63.7,57.4,30.12,East,90,0.0,0.0,80,0.00,,,0.00,WUHU216HW,2013-01-01 09:35:00,
2013-01-01 05:00:00,63.7,57.4,30.12,ENE,68,0.9,0.9,80,0.00,,,0.00,WUHU216HW,2013-01-01 10:00:00,
2013-01-01 05:05:00,63.7,57.4,30.12,ENE,68,0.9,0.9,80,0.00,,,0.00,WUHU216HW,2013-01-01 10:05:00,
2013-01-01 05:29:00,63.7,57.4,30.11,East,90,0.7,0.7,80,0.00,,,0.00,WUHU216HW,2013-01-01 10:29:00,
2013-01-01 05:35:00,63.7,57.4,30.11,East,90,0.7,0.7,80,0.00,,,0.00,WUHU216HW,2013-01-01 10:35:00,
2013-01-01 05:59:00,63.7,57.4,30.10,NE,45,1.1,1.1,80,0.00,,,0.00,WUHU216HW,2013-01-01 10:59:00,
2013-01-01 06:04:00,63.7,57.4,30.10,NE,45,1.1,1.1,80,0.00,,,0.00,WUHU216HW,2013-01-01 11:04:00,
2013-01-01 06:29:00,63.7,57.4,30.09,SE,135,0.0,0.0,80,0.00,,,0.00,WUHU216HW,2013-01-01 11:29:00,
2013-01-01 06:34:00,63.7,57.4,30.09,SE,135,0.0,0.0,80,0.00,,,0.00,WUHU216HW,2013-01-01 11:34:00,
2013-01-01 06:59:00,63.4,57.1,30.10,ENE,68,0.2,0.2,80,0.00,,,0.00,WUHU216HW,2013-01-01 11:59:00,
2013-01-01 07:04:00,63.4,57.1,30.10,ENE,68,0.2,0.2,80,0.00,,,0.00,WUHU216HW,2013-01-01 12:04:00,
2013-01-01 07:29:00,62.6,56.7,30.10,East,90,0.4,0.4,81,0.00,,,0.00,WUHU216HW,2013-01-01 12:29:00,
2013-01-01 07:35:00,62.6,56.7,30.10,East,90,0.4,0.4,81,0.00,,,0.00,WUHU216HW,2013-01-01 12:35:00,
2013-01-01 07:59:00,62.6,57.1,30.11,ENE,68,0.0,0.0,82,0.00,,,0.00,WUHU216HW,2013-01-01 12:59:00,
2013-01-01 08:04:00,62.6,57.1,30.11,ENE,68,0.0,0.0,82,0.00,,,0.00,WUHU216HW,2013-01-01 13:04:00,
2013-01-01 08:29:00,62.8,57.3,30.12,SE,135,0.4,0.4,82,0.00,,,0.00,WUHU216HW,2013-01-01 13:29:00,
2013-01-01 08:34:00,62.8,57.3,30.12,SE,135,0.4,0.4,82,0.00,,,0.00,WUHU216HW,2013-01-01 13:34:00,
2013-01-01 08:59:00,64.1,58.2,30.13,SE,135,0.9,0.9,81,0.00,,,0.00,WUHU216HW,2013-01-01 13:59:00,
2013-01-01 09:04:00,64.1,58.2,30.13,SE,135,0.9,0.9,81,0.00,,,0.00,WUHU216HW,2013-01-01 14:04:00,
2013-01-01 09:29:00,67.5,60.5,30.13,ESE,113,1.8,1.8,78,0.00,,,0.00,WUHU216HW,2013-01-01 14:29:00,
2013-01-01 09:34:00,67.5,60.5,30.13,ESE,113,1.8,1.8,78,0.00,,,0.00,WUHU216HW,2013-01-01 14:34:00,
2013-01-01 09:59:00,70.6,61.5,30.12,SE,135,1.8,1.8,73,0.00,,,0.00,WUHU216HW,2013-01-01 14:59:00,
2013-01-01 10:04:00,70.6,61.5,30.12,SE,135,1.8,1.8,73,0.00,,,0.00,WUHU216HW,2013-01-01 15:04:00,
2013-01-01 10:29:00,72.5,62.6,30.12,ENE,68,4.3,4.3,71,0.00,,,0.00,WUHU216HW,2013-01-01 15:29:00,
2013-01-01 10:34:00,72.5,62.6,30.12,ENE,68,4.3,4.3,71,0.00,,,0.00,WUHU216HW,2013-01-01 15:34:00,
2013-01-01 10:59:00,74.2,62.1,30.11,SSE,158,3.4,3.4,66,0.00,,,0.00,WUHU216HW,2013-01-01 15:59:00,
2013-01-01 11:04:00,74.2,62.1,30.11,SSE,158,3.4,3.4,66,0.00,,,0.00,WUHU216HW,2013-01-01 16:04:00,
2013-01-01 11:29:00,74.9,61.8,30.09,SSE,158,2.9,2.9,64,0.00,,,0.00,WUHU216HW,2013-01-01 16:29:00,
2013-01-01 11:34:00,74.9,61.8,30.09,SSE,158,2.9,2.9,64,0.00,,,0.00,WUHU216HW,2013-01-01 16:34:00,
2013-01-01 11:59:00,76.0,62.0,30.08,ESE,113,1.6,1.6,62,0.00,,,0.00,WUHU216HW,2013-01-01 16:59:00,
2013-01-01 12:04:00,76.0,62.0,30.08,ESE,113,1.6,1.6,62,0.00,,,0.00,WUHU216HW,2013-01-01 17:04:00,
2013-01-01 12:29:00,76.0,62.0,30.07,SE,135,6.3,6.3,62,0.00,,,0.00,WUHU216HW,2013-01-01 17:29:00,
2013-01-01 12:34:00,76.0,62.0,30.07,SE,135,6.3,6.3,62,0.00,,,0.00,WUHU216HW,2013-01-01 17:34:00,
2013-01-01 12:59:00,76.3,61.9,30.06,SE,135,3.6,3.6,61,0.00,,,0.00,WUHU216HW,2013-01-01 17:59:00,
2013-01-01 13:04:00,76.3,61.9,30.06,SE,135,3.6,3.6,61,0.00,,,0.00,WUHU216HW,2013-01-01 18:04:00,
2013-01-01 13:29:00,76.7,63.5,30.04,South,180,5.4,5.4,64,0.00,,,0.00,WUHU216HW,2013-01-01 18:29:00,
2013-01-01 13:34:00,76.7,63.5,30.04,South,180,5.4,5.4,64,0.00,,,0.00,WUHU216HW,2013-01-01 18:34:00,
2013-01-01 13:59:00,77.0,63.5,30.02,SE,135,1.6,1.6,63,0.00,,,0.00,WUHU216HW,2013-01-01 18:59:00,
2013-01-01 14:04:00,77.0,63.5,30.02,SE,135,1.6,1.6,63,0.00,,,0.00,WUHU216HW,2013-01-01 19:04:00,
2013-01-01 14:31:00,77.2,63.6,30.03,SE,135,5.6,5.6,63,0.00,,,0.00,WUHU216HW,2013-01-01 19:31:00,
2013-01-01 14:36:00,77.2,63.6,30.03,SE,135,5.6,5.6,63,0.00,,,0.00,WUHU216HW,2013-01-01 19:36:00,
2013-01-01 15:02:00,77.2,64.5,30.02,South,180,3.4,3.4,65,0.00,,,0.00,WUHU216HW,2013-01-01 20:02:00,
2013-01-01 15:07:00,77.2,64.5,30.02,South,180,3.4,3.4,65,0.00,,,0.00,WUHU216HW,2013-01-01 20:07:00,
2013-01-01 15:30:00,77.6,64.9,30.02,SE,135,1.6,1.6,65,0.00,,,0.00,WUHU216HW,2013-01-01 20:30:00,
2013-01-01 15:35:00,77.6,64.9,30.02,SE,135,1.6,1.6,65,0.00,,,0.00,WUHU216HW,2013-01-01 20:35:00,
2013-01-01 15:59:00,77.0,64.8,30.03,SSE,158,0.7,0.7,66,0.00,,,0.00,WUHU216HW,2013-01-01 20:59:00,
2013-01-01 16:04:00,77.0,64.8,30.03,SSE,158,0.7,0.7,66,0.00,,,0.00,WUHU216HW,2013-01-01 21:04:00,
2013-01-01 16:29:00,76.0,64.2,30.03,South,180,1.6,1.6,67,0.00,,,0.00,WUHU216HW,2013-01-01 21:29:00,
2013-01-01 16:34:00,76.0,64.2,30.03,South,180,1.6,1.6,67,0.00,,,0.00,WUHU216HW,2013-01-01 21:34:00,
2013-01-01 16:59:00,74.9,64.1,30.02,SSE,158,6.0,6.0,69,0.00,,,0.00,WUHU216HW,2013-01-01 21:59:00,
2013-01-01 17:04:00,74.9,64.1,30.02,SSE,158,6.0,6.0,69,0.00,,,0.00,WUHU216HW,2013-01-01 22:04:00,
2013-01-01 17:29:00,73.8,63.9,30.02,SSE,158,0.9,0.9,71,0.00,,,0.00,WUHU216HW,2013-01-01 22:29:00,
2013-01-01 17:34:00,73.8,63.9,30.02,SSE,158,0.9,0.9,71,0.00,,,0.00,WUHU216HW,2013-01-01 22:34:00,
2013-01-01 17:59:00,73.1,63.5,30.02,SE,135,0.0,0.0,72,0.00,,,0.00,WUHU216HW,2013-01-01 22:59:00,
2013-01-01 18:04:00,73.1,63.5,30.02,SE,135,0.0,0.0,72,0.00,,,0.00,WUHU216HW,2013-01-01 23:04:00,
2013-01-01 18:29:00,72.2,63.1,30.03,SE,135,0.0,0.0,73,0.00,,,0.00,WUHU216HW,2013-01-01 23:29:00,
2013-01-01 18:35:00,72.2,63.1,30.03,SE,135,0.0,0.0,73,0.00,,,0.00,WUHU216HW,2013-01-01 23:35:00,
2013-01-01 18:59:00,71.1,62.0,30.03,SE,135,0.0,0.0,73,0.00,,,0.00,WUHU216HW,2013-01-01 23:59:00,
2013-01-01 19:05:00,71.1,62.0,30.03,SE,135,0.0,0.0,73,0.00,,,0.00,WUHU216HW,2013-01-02 00:05:00,
2013-01-01 19:29:00,70.0,61.7,30.04,SE,135,0.4,0.4,75,0.00,,,0.00,WUHU216HW,2013-01-02 00:29:00,
2013-01-01 19:34:00,70.0,61.7,30.04,SE,135,0.4,0.4,75,0.00,,,0.00,WUHU216HW,2013-01-02 00:34:00,
2013-01-01 19:59:00,69.3,61.7,30.04,SE,135,0.4,0.4,77,0.00,,,0.00,WUHU216HW,2013-01-02 00:59:00,
2013-01-01 20:05:00,69.3,61.7,30.04,SE,135,0.4,0.4,77,0.00,,,0.00,WUHU216HW,2013-01-02 01:05:00,
2013-01-01 20:29:00,68.6,61.5,30.04,SE,135,0.0,0.0,78,0.00,,,0.00,WUHU216HW,2013-01-02 01:29:00,
2013-01-01 20:35:00,68.6,61.5,30.04,SE,135,0.0,0.0,78,0.00,,,0.00,WUHU216HW,2013-01-02 01:35:00,
2013-01-01 20:59:00,68.0,61.4,30.05,SE,135,0.0,0.0,79,0.00,,,0.00,WUHU216HW,2013-01-02 01:59:00,
2013-01-01 21:04:00,68.0,61.4,30.05,SE,135,0.0,0.0,79,0.00,,,0.00,WUHU216HW,2013-01-02 02:04:00,
2013-01-01 21:34:00,67.5,61.2,30.05,SE,135,0.0,0.0,80,0.00,,,0.00,WUHU216HW,2013-01-02 02:34:00,
2013-01-01 21:35:00,67.5,61.2,30.05,SE,135,0.0,0.0,80,0.00,,,0.00,WUHU216HW,2013-01-02 02:35:00,
2013-01-01 21:40:00,67.5,61.2,30.05,SE,135,0.0,0.0,80,0.00,,,0.00,WUHU216HW,2013-01-02 02:40:00,
2013-01-01 22:00:00,67.1,60.8,30.05,SE,135,0.0,0.0,80,0.00,,,0.00,WUHU216HW,2013-01-02 03:00:00,
2013-01-01 22:05:00,67.1,60.8,30.05,SE,135,0.0,0.0,80,0.00,,,0.00,WUHU216HW,2013-01-02 03:05:00,
2013-01-01 22:30:00,67.0,60.7,30.05,SE,135,0.0,0.0,80,0.00,,,0.00,WUHU216HW,2013-01-02 03:30:00,
2013-01-01 22:35:00,67.0,60.7,30.05,SE,135,0.0,0.0,80,0.00,,,0.00,WUHU216HW,2013-01-02 03:35:00,
2013-01-01 22:59:00,66.8,60.9,30.04,SE,135,0.0,0.0,81,0.00,,,0.00,WUHU216HW,2013-01-02 03:59:00,
2013-01-01 23:05:00,66.8,60.9,30.04,SE,135,0.0,0.0,81,0.00,,,0.00,WUHU216HW,2013-01-02 04:05:00,
2013-01-01 23:29:00,66.4,60.8,30.04,SE,135,0.0,0.0,82,0.00,,,0.00,WUHU216HW,2013-01-02 04:29:00,
2013-01-01 23:34:00,66.4,60.8,30.04,SE,135,0.0,0.0,82,0.00,,,0.00,WUHU216HW,2013-01-02 04:34:00,
2013-01-01 23:59:00,66.4,60.8,30.03,SE,135,0.0,0.0,82,0.00,,,0.00,WUHU216HW,2013-01-02 04:59:00,